Time;durP1;ratioP1;P1;durP2;ratioP2;P2;SDS_P1;SDS_P2;PMS_P1;PMS_P2;Temp;Humidity;BMP_temperature;BMP_pressure;BME280_temperature;BME280_humidity;BME280_pressure;Samples;Min_cycle;Max_cycle;Signal;HPM_P1;HPM_P2
2022/03/07 00:01:55;;;;;;;7.78;5.13;;;3.20;46.50;;;;;;5045361;28;20471;-62
2022/03/07 00:04:21;;;;;;;7.95;5.32;;;3.20;47.10;;;;;;5028450;28;20033;-63
2022/03/07 00:06:47;;;;;;;6.82;4.65;;;3.20;46.60;;;;;;5045347;28;20097;-62
2022/03/07 00:09:14;;;;;;;8.77;5.18;;;3.20;46.50;;;;;;5047590;28;20024;-62
2022/03/07 00:11:41;;;;;;;7.35;5.38;;;3.20;46.70;;;;;;5028362;28;20034;-62
2022/03/07 00:14:07;;;;;;;7.70;5.03;;;3.20;46.60;;;;;;5043656;28;20081;-62
2022/03/07 00:16:33;;;;;;;8.43;5.13;;;3.30;46.70;;;;;;5047272;28;20056;-64
2022/03/07 00:18:59;;;;;;;9.02;4.80;;;3.10;46.60;;;;;;5044029;28;20072;-62
2022/03/07 00:21:25;;;;;;;7.80;5.00;;;3.10;46.50;;;;;;5045633;28;20061;-62
2022/03/07 00:23:51;;;;;;;7.20;4.78;;;3.10;46.60;;;;;;5044463;28;20048;-62
2022/03/07 00:26:18;;;;;;;9.95;5.35;;;3.10;46.60;;;;;;5045725;28;20034;-62
2022/03/07 00:28:44;;;;;;;7.10;4.45;;;3.10;46.70;;;;;;5045079;28;20056;-62
2022/03/07 00:31:11;;;;;;;7.18;5.00;;;3.20;46.70;;;;;;5045456;28;20041;-62
2022/03/07 00:33:37;;;;;;;8.77;4.60;;;3.00;46.80;;;;;;5027665;28;20042;-62
2022/03/07 00:36:04;;;;;;;8.55;5.10;;;3.00;46.70;;;;;;5045771;28;20072;-63
2022/03/07 00:38:30;;;;;;;11.00;5.15;;;3.00;46.70;;;;;;5045800;28;20104;-62
2022/03/07 00:40:57;;;;;;;10.32;5.13;;;3.10;46.80;;;;;;5044237;28;20474;-62
2022/03/07 00:43:22;;;;;;;6.35;4.30;;;3.30;46.90;;;;;;5044993;28;20116;-62
2022/03/07 00:45:49;;;;;;;7.32;5.13;;;3.00;46.70;;;;;;5044771;28;20044;-62
2022/03/07 00:48:15;;;;;;;6.25;4.32;;;3.00;46.80;;;;;;5045575;28;20014;-62
2022/03/07 00:50:43;;;;;;;8.10;4.63;;;2.90;46.60;;;;;;5045559;28;20051;-62
2022/03/07 00:53:11;;;;;;;6.93;4.60;;;2.90;47.00;;;;;;5046303;28;20059;-64
2022/03/07 00:55:40;;;;;;;7.55;4.90;;;2.90;46.70;;;;;;5044620;28;20026;-61
2022/03/07 00:58:06;;;;;;;6.97;4.75;;;3.20;46.90;;;;;;5045238;28;20036;-64
2022/03/07 01:00:33;;;;;;;8.82;4.75;;;2.90;46.70;;;;;;5026114;28;20038;-63
2022/03/07 01:02:58;;;;;;;8.85;4.90;;;2.90;46.80;;;;;;5044794;28;20029;-63
2022/03/07 01:05:24;;;;;;;6.88;4.45;;;2.90;46.90;;;;;;5038931;28;20036;-63
2022/03/07 01:07:50;;;;;;;8.82;4.90;;;2.90;46.70;;;;;;5045066;28;20124;-65
2022/03/07 01:10:16;;;;;;;10.45;4.90;;;2.90;46.90;;;;;;5025766;28;20448;-64
2022/03/07 01:12:42;;;;;;;12.35;5.68;;;2.80;46.80;;;;;;5027048;28;20110;-63
2022/03/07 01:15:09;;;;;;;7.60;4.90;;;2.80;46.80;;;;;;5043695;28;20037;-63
2022/03/07 01:17:36;;;;;;;7.75;4.90;;;2.80;46.90;;;;;;5052545;28;20028;-63
2022/03/07 01:20:03;;;;;;;7.72;4.85;;;3.00;47.00;;;;;;5044189;28;20060;-61
2022/03/07 01:22:28;;;;;;;8.20;4.85;;;2.80;46.70;;;;;;5020834;28;20037;-62
2022/03/07 01:24:54;;;;;;;8.75;4.88;;;2.70;46.80;;;;;;5042592;28;20029;-63
2022/03/07 01:27:20;;;;;;;7.85;5.03;;;2.70;47.00;;;;;;5042404;28;20026;-62
2022/03/07 01:29:45;;;;;;;7.97;4.97;;;2.70;46.80;;;;;;5038884;28;20114;-63
2022/03/07 01:32:11;;;;;;;9.25;5.05;;;2.90;46.90;;;;;;5044512;28;20045;-63
2022/03/07 01:34:37;;;;;;;7.30;4.88;;;2.70;47.00;;;;;;5025286;28;20069;-63
2022/03/07 01:37:03;;;;;;;10.65;5.38;;;2.70;46.90;;;;;;5044867;28;20086;-63
2022/03/07 01:39:28;;;;;;;7.97;5.07;;;2.70;46.90;;;;;;5040996;28;20413;-64
2022/03/07 01:41:54;;;;;;;7.80;5.22;;;2.70;47.00;;;;;;5044593;28;20033;-63
2022/03/07 01:44:22;;;;;;;8.55;5.75;;;2.70;47.00;;;;;;5044284;28;20025;-63
2022/03/07 01:46:48;;;;;;;8.68;5.22;;;2.60;47.00;;;;;;5050041;28;20029;-63
2022/03/07 01:49:14;;;;;;;7.55;4.85;;;2.60;47.00;;;;;;5040379;28;20018;-63
2022/03/07 01:51:44;;;;;;;8.77;5.38;;;2.60;47.00;;;;;;5023938;28;20076;-63
2022/03/07 01:54:11;;;;;;;6.53;4.75;;;2.70;47.30;;;;;;5044368;28;20034;-63
2022/03/07 01:56:38;;;;;;;11.90;5.05;;;2.60;47.10;;;;;;5041115;28;20025;-63
2022/03/07 01:59:04;;;;;;;9.77;5.38;;;2.60;47.20;;;;;;5044111;28;20152;-63
2022/03/07 02:01:31;;;;;;;8.52;5.30;;;2.60;47.00;;;;;;5042080;28;20023;-63
2022/03/07 02:03:57;;;;;;;9.00;5.82;;;2.60;47.10;;;;;;5042925;28;20052;-63
2022/03/07 02:06:24;;;;;;;8.55;5.40;;;2.60;47.10;;;;;;5042764;28;20029;-62
2022/03/07 02:08:51;;;;;;;7.97;5.07;;;2.80;47.20;;;;;;5044268;28;20083;-62
2022/03/07 02:11:17;;;;;;;8.50;5.20;;;2.60;47.10;;;;;;5032832;28;20025;-64
2022/03/07 02:13:43;;;;;;;8.07;5.38;;;2.80;47.20;;;;;;5043851;28;20105;-62
2022/03/07 02:16:09;;;;;;;10.35;5.97;;;2.70;47.20;;;;;;5039357;28;20029;-62
2022/03/07 02:18:35;;;;;;;8.43;5.30;;;2.60;47.20;;;;;;5043322;28;20025;-62
2022/03/07 02:21:09;;;;;;;8.90;5.68;;;2.60;47.20;;;;;;5024948;28;20029;-62
2022/03/07 02:23:35;;;;;;;;;;;2.60;47.30;;;;;;5040837;28;20026;-62
2022/03/07 02:26:10;;;;;;;8.98;4.93;;;2.70;47.40;;;;;;5024454;28;19917;-62
2022/03/07 02:28:38;;;;;;;7.75;5.53;;;2.60;47.00;;;;;;5035242;28;20029;-62
2022/03/07 02:31:04;;;;;;;9.32;5.78;;;2.60;47.10;;;;;;5040482;28;20128;-62
2022/03/07 02:33:30;;;;;;;7.90;5.32;;;2.80;47.30;;;;;;5044549;28;20493;-62
2022/03/07 02:35:56;;;;;;;9.85;6.03;;;2.70;47.20;;;;;;5023445;28;20392;-62
2022/03/07 02:38:22;;;;;;;9.63;5.70;;;2.70;47.30;;;;;;5041348;28;20049;-63
2022/03/07 02:40:48;;;;;;;8.38;5.70;;;2.60;47.60;;;;;;5042513;28;20485;-62
2022/03/07 02:43:15;;;;;;;9.35;5.82;;;2.60;47.30;;;;;;5043690;28;20065;-62
2022/03/07 02:45:41;;;;;;;9.32;6.38;;;2.80;47.40;;;;;;5041710;28;20096;-62
2022/03/07 02:48:07;;;;;;;10.25;6.50;;;2.60;47.60;;;;;;5041749;28;20420;-62
2022/03/07 02:50:32;;;;;;;8.60;5.97;;;2.60;47.40;;;;;;5042318;28;20029;-62
2022/03/07 02:52:58;;;;;;;9.05;6.05;;;2.60;47.40;;;;;;5042324;28;20030;-62
2022/03/07 02:55:24;;;;;;;8.25;5.63;;;2.60;47.30;;;;;;5042130;28;20029;-62
2022/03/07 02:57:50;;;;;;;7.55;5.28;;;2.60;47.30;;;;;;5042946;28;20036;-62
2022/03/07 03:00:16;;;;;;;8.68;5.72;;;2.60;47.40;;;;;;5041411;28;20018;-63
2022/03/07 03:02:41;;;;;;;13.18;7.03;;;2.60;47.50;;;;;;5043452;28;20454;-63
2022/03/07 03:05:08;;;;;;;9.93;6.68;;;2.60;47.70;;;;;;5035532;28;20409;-62
2022/03/07 03:07:34;;;;;;;11.43;6.65;;;2.60;48.10;;;;;;5041744;28;20037;-63
2022/03/07 03:10:00;;;;;;;9.93;7.00;;;2.70;47.50;;;;;;5038577;28;20127;-63
2022/03/07 03:12:27;;;;;;;10.23;7.05;;;2.50;47.50;;;;;;5040968;28;20022;-63
2022/03/07 03:14:53;;;;;;;11.80;7.25;;;2.50;47.30;;;;;;5041033;28;20048;-62
2022/03/07 03:17:19;;;;;;;13.60;7.00;;;2.80;47.60;;;;;;5043532;28;20057;-61
2022/03/07 03:19:45;;;;;;;13.10;6.80;;;2.50;47.50;;;;;;5041135;28;20028;-61
2022/03/07 03:22:10;;;;;;;10.48;7.03;;;2.50;47.30;;;;;;5044371;28;21423;-64
2022/03/07 03:24:37;;;;;;;9.75;6.90;;;2.50;47.50;;;;;;5040348;28;20040;-62
2022/03/07 03:27:04;;;;;;;12.93;7.93;;;2.50;47.50;;;;;;5041046;28;21553;-62
2022/03/07 03:29:30;;;;;;;10.95;7.57;;;2.80;47.80;;;;;;5042460;28;20110;-63
2022/03/07 03:31:56;;;;;;;13.32;7.63;;;2.60;47.80;;;;;;5035883;28;20033;-62
2022/03/07 03:34:22;;;;;;;11.00;7.43;;;2.50;47.60;;;;;;5042680;28;20067;-63
2022/03/07 03:36:47;;;;;;;11.05;7.15;;;2.40;47.70;;;;;;5040444;28;20021;-62
2022/03/07 03:39:13;;;;;;;10.15;6.90;;;2.60;47.60;;;;;;5048450;28;20462;-62
2022/03/07 03:41:39;;;;;;;13.88;8.02;;;2.50;47.60;;;;;;5045824;28;20029;-62
2022/03/07 03:44:05;;;;;;;11.90;7.80;;;2.40;47.50;;;;;;5042579;28;20072;-62
2022/03/07 03:46:31;;;;;;;10.13;7.05;;;2.40;47.60;;;;;;5041700;28;20044;-64
2022/03/07 03:48:57;;;;;;;10.60;7.18;;;2.40;47.60;;;;;;5038778;28;20033;-62
2022/03/07 03:51:23;;;;;;;11.68;7.85;;;2.40;47.70;;;;;;5045845;28;20095;-63
2022/03/07 03:53:48;;;;;;;12.63;7.68;;;2.40;47.60;;;;;;5029671;28;20038;-62
2022/03/07 03:56:14;;;;;;;11.52;7.25;;;2.40;47.80;;;;;;5045899;28;20033;-61
2022/03/07 03:58:39;;;;;;;13.07;8.10;;;2.40;47.70;;;;;;5047068;28;20090;-62
2022/03/07 04:01:06;;;;;;;14.50;7.85;;;2.40;47.70;;;;;;5042430;28;20132;-62
2022/03/07 04:03:31;;;;;;;10.68;7.95;;;2.40;47.90;;;;;;5048402;28;20203;-61
2022/03/07 04:05:57;;;;;;;12.07;7.60;;;2.40;47.90;;;;;;5046160;28;20034;-61
2022/03/07 04:08:23;;;;;;;11.95;7.55;;;2.30;47.80;;;;;;5047257;28;20089;-61
2022/03/07 04:10:48;;;;;;;9.60;7.15;;;2.30;47.80;;;;;;5045841;28;20053;-62
2022/03/07 04:13:14;;;;;;;11.80;7.50;;;2.30;47.80;;;;;;5046502;28;20057;-62
2022/03/07 04:15:40;;;;;;;17.60;7.72;;;2.40;47.90;;;;;;5045916;28;20483;-62
2022/03/07 04:18:08;;;;;;;10.23;6.97;;;2.40;47.90;;;;;;5046799;28;20026;-63
2022/03/07 04:20:34;;;;;;;11.30;7.45;;;2.30;47.90;;;;;;5045512;28;20215;-63
2022/03/07 04:23:01;;;;;;;11.02;7.38;;;2.30;47.90;;;;;;5047284;28;20484;-61
2022/03/07 04:25:27;;;;;;;10.05;7.28;;;2.40;48.10;;;;;;5045116;28;20148;-63
2022/03/07 04:27:53;;;;;;;10.80;7.78;;;2.40;48.10;;;;;;5047041;28;20120;-63
2022/03/07 04:30:19;;;;;;;13.18;8.05;;;2.40;47.90;;;;;;5045580;28;20018;-62
2022/03/07 04:32:45;;;;;;;13.02;7.60;;;2.40;47.90;;;;;;5046714;28;20037;-62
2022/03/07 04:35:11;;;;;;;12.15;7.68;;;2.40;48.00;;;;;;5045075;28;20032;-63
2022/03/07 04:37:40;;;;;;;13.98;8.23;;;2.40;47.90;;;;;;5046189;28;20371;-61
2022/03/07 04:40:12;;;;;;;13.38;8.40;;;2.40;48.00;;;;;;5045206;28;20064;-64
2022/03/07 04:42:39;;;;;;;14.02;7.70;;;2.30;48.00;;;;;;5043283;28;20036;-61
2022/03/07 04:45:05;;;;;;;10.77;7.43;;;2.40;48.00;;;;;;5045320;28;20029;-62
2022/03/07 04:47:31;;;;;;;12.02;8.10;;;2.30;48.10;;;;;;5045990;28;20099;-63
2022/03/07 04:49:56;;;;;;;12.52;8.15;;;2.30;48.10;;;;;;5036153;28;20495;-63
2022/03/07 04:52:22;;;;;;;14.13;7.97;;;2.30;48.00;;;;;;5046066;28;20632;-63
2022/03/07 04:54:48;;;;;;;13.38;7.80;;;2.50;48.10;;;;;;5044571;28;20041;-63
2022/03/07 04:57:13;;;;;;;14.05;8.20;;;2.30;48.10;;;;;;5046533;28;20037;-63
2022/03/07 04:59:39;;;;;;;13.27;8.65;;;2.50;48.20;;;;;;5044557;28;20037;-63
2022/03/07 05:02:04;;;;;;;11.70;8.02;;;2.20;48.10;;;;;;5046401;28;20044;-63
2022/03/07 05:04:30;;;;;;;11.82;7.82;;;2.40;48.30;;;;;;5026697;28;20033;-63
2022/03/07 05:06:56;;;;;;;14.68;8.07;;;2.20;48.30;;;;;;5046650;28;20035;-63
2022/03/07 05:09:22;;;;;;;15.88;8.35;;;2.30;48.40;;;;;;5045810;28;20025;-63
2022/03/07 05:11:47;;;;;;;12.55;8.70;;;2.20;48.30;;;;;;5036374;28;20033;-64
2022/03/07 05:14:13;;;;;;;11.70;7.90;;;2.10;48.50;;;;;;5027988;28;20175;-63
2022/03/07 05:16:39;;;;;;;13.18;7.95;;;2.10;48.30;;;;;;5045120;28;20017;-63
2022/03/07 05:19:04;;;;;;;13.80;7.63;;;2.10;48.30;;;;;;5045849;28;20112;-62
2022/03/07 05:21:30;;;;;;;14.25;8.32;;;2.10;48.30;;;;;;5045074;28;20036;-63
2022/03/07 05:23:55;;;;;;;13.45;8.48;;;2.30;48.50;;;;;;5045523;28;20029;-63
2022/03/07 05:26:21;;;;;;;12.75;8.48;;;2.20;48.70;;;;;;5044802;28;20169;-63
2022/03/07 05:28:47;;;;;;;12.48;8.27;;;2.10;48.50;;;;;;5045478;28;20220;-63
2022/03/07 05:31:13;;;;;;;14.52;8.82;;;2.00;48.60;;;;;;5044339;28;20037;-63
2022/03/07 05:33:40;;;;;;;15.70;8.43;;;2.00;48.60;;;;;;5045365;28;20034;-63
2022/03/07 05:36:07;;;;;;;16.20;8.85;;;2.00;48.70;;;;;;5044557;28;20025;-63
2022/03/07 05:38:33;;;;;;;12.88;8.25;;;2.10;48.80;;;;;;5039045;28;20034;-63
2022/03/07 05:40:58;;;;;;;12.60;9.05;;;2.00;48.90;;;;;;5043798;28;20601;-63
2022/03/07 05:43:24;;;;;;;13.38;8.20;;;2.00;49.30;;;;;;5045438;28;20044;-63
2022/03/07 05:45:50;;;;;;;12.50;8.10;;;2.00;48.50;;;;;;5043838;28;20045;-63
2022/03/07 05:48:15;;;;;;;14.07;8.98;;;2.10;48.70;;;;;;5027117;28;20033;-63
2022/03/07 05:50:41;;;;;;;14.80;8.75;;;1.90;48.70;;;;;;5043691;28;20029;-64
2022/03/07 05:53:07;;;;;;;20.25;8.88;;;1.90;48.50;;;;;;5044889;28;20043;-62
2022/03/07 05:55:33;;;;;;;12.48;8.15;;;1.90;48.70;;;;;;5044121;28;20068;-63
2022/03/07 05:58:02;;;;;;;14.55;8.80;;;1.90;48.70;;;;;;5043437;28;20021;-63
2022/03/07 06:00:29;;;;;;;14.90;9.50;;;1.80;48.90;;;;;;5043785;28;20040;-62
2022/03/07 06:02:55;;;;;;;13.35;7.82;;;1.80;49.60;;;;;;5045269;28;20410;-63
2022/03/07 06:05:21;;;;;;;12.45;8.48;;;2.00;49.20;;;;;;5044015;28;20041;-62
2022/03/07 06:07:46;;;;;;;13.80;8.43;;;1.80;49.00;;;;;;5044246;28;20025;-63
2022/03/07 06:10:12;;;;;;;13.55;8.45;;;1.80;49.10;;;;;;5039935;28;20018;-64
2022/03/07 06:12:38;;;;;;;12.32;7.55;;;1.80;49.10;;;;;;5032815;28;20049;-63
2022/03/07 06:15:05;;;;;;;13.57;8.00;;;1.80;48.90;;;;;;5043560;28;20032;-63
2022/03/07 06:17:31;;;;;;;12.80;7.47;;;1.70;49.00;;;;;;5044775;28;20065;-63
2022/03/07 06:19:57;;;;;;;12.15;7.60;;;1.80;49.00;;;;;;5043250;28;20024;-62
2022/03/07 06:22:23;;;;;;;12.90;7.82;;;1.80;49.20;;;;;;5044323;28;20035;-63
2022/03/07 06:24:49;;;;;;;13.15;7.85;;;1.70;49.20;;;;;;5025679;28;20034;-63
2022/03/07 06:27:15;;;;;;;14.40;8.30;;;1.70;49.10;;;;;;5026809;28;20059;-63
2022/03/07 06:29:40;;;;;;;13.82;8.55;;;1.80;49.50;;;;;;5025754;28;20120;-63
2022/03/07 06:32:07;;;;;;;12.27;7.80;;;1.70;49.40;;;;;;5044692;28;20084;-63
2022/03/07 06:34:33;;;;;;;12.55;7.57;;;1.70;49.20;;;;;;5043124;28;20033;-63
2022/03/07 06:37:00;;;;;;;12.57;6.80;;;1.70;49.30;;;;;;5044121;28;20033;-63
2022/03/07 06:39:27;;;;;;;15.57;7.25;;;1.70;49.10;;;;;;5044710;28;20026;-62
2022/03/07 06:41:56;;;;;;;12.75;6.85;;;1.60;49.10;;;;;;5043105;28;20036;-63
2022/03/07 06:44:22;;;;;;;17.55;8.10;;;1.70;49.30;;;;;;5044431;28;20025;-63
2022/03/07 06:46:48;;;;;;;11.90;7.10;;;1.70;49.50;;;;;;5042925;28;20086;-63
2022/03/07 06:49:14;;;;;;;15.63;7.10;;;1.70;49.30;;;;;;5044257;28;20469;-63
2022/03/07 06:51:39;;;;;;;13.07;7.63;;;1.70;49.60;;;;;;5043260;28;20033;-63
2022/03/07 06:54:05;;;;;;;12.50;6.72;;;1.70;49.60;;;;;;5043714;28;20127;-63
2022/03/07 06:56:31;;;;;;;11.93;6.90;;;1.90;49.50;;;;;;5043607;28;20474;-63
2022/03/07 06:58:56;;;;;;;10.38;6.38;;;1.70;49.30;;;;;;5026080;28;20037;-62
2022/03/07 07:01:22;;;;;;;11.32;6.68;;;1.90;49.40;;;;;;5043592;28;20123;-63
2022/03/07 07:03:48;;;;;;;11.85;6.20;;;1.70;49.20;;;;;;5044043;28;20061;-63
2022/03/07 07:06:14;;;;;;;9.63;6.15;;;1.90;49.30;;;;;;5043369;28;20034;-63
2022/03/07 07:08:40;;;;;;;9.55;6.22;;;1.90;49.20;;;;;;5044263;28;20040;-63
2022/03/07 07:11:05;;;;;;;12.48;5.90;;;1.90;49.40;;;;;;5042934;28;20025;-63
2022/03/07 07:13:31;;;;;;;11.27;5.45;;;1.70;49.10;;;;;;5011457;28;20050;-62
2022/03/07 07:15:57;;;;;;;9.25;5.75;;;2.00;49.40;;;;;;5004265;28;20027;-63
2022/03/07 07:18:24;;;;;;;11.55;5.68;;;1.80;48.80;;;;;;5004121;28;20033;-63
2022/03/07 07:20:50;;;;;;;8.32;5.53;;;1.80;49.00;;;;;;5003519;28;20022;-63
2022/03/07 07:23:18;;;;;;;8.05;5.75;;;1.90;49.20;;;;;;5006785;28;20109;-63
2022/03/07 07:25:44;;;;;;;11.02;5.68;;;1.90;49.20;;;;;;5007734;28;20030;-62
2022/03/07 07:28:10;;;;;;;13.45;6.35;;;2.10;49.00;;;;;;5008005;28;20030;-65
2022/03/07 07:30:35;;;;;;;9.25;6.05;;;2.30;49.00;;;;;;5003829;28;20034;-63
2022/03/07 07:33:01;;;;;;;8.38;5.95;;;2.10;49.00;;;;;;5008687;28;20093;-64
2022/03/07 07:35:27;;;;;;;9.60;5.32;;;2.10;48.90;;;;;;5007186;28;20023;-62
2022/03/07 07:37:54;;;;;;;10.23;6.05;;;2.20;48.90;;;;;;5007501;28;20065;-61
2022/03/07 07:40:20;;;;;;;13.43;5.70;;;2.30;48.80;;;;;;5006998;28;20109;-61
2022/03/07 07:42:46;;;;;;;8.45;5.68;;;2.20;48.70;;;;;;5008653;28;20026;-63
2022/03/07 07:45:12;;;;;;;9.32;5.50;;;2.30;48.80;;;;;;5006809;28;20033;-61
2022/03/07 07:47:39;;;;;;;12.73;6.32;;;2.30;48.70;;;;;;5007864;28;20040;-63
2022/03/07 07:50:05;;;;;;;10.98;5.22;;;2.40;48.70;;;;;;5006542;28;20027;-62
2022/03/07 07:52:31;;;;;;;8.27;5.47;;;2.50;48.70;;;;;;5007978;28;20440;-61
2022/03/07 07:54:56;;;;;;;11.05;6.82;;;2.50;48.60;;;;;;5006900;28;20030;-62
2022/03/07 07:57:22;;;;;;;13.27;6.03;;;2.60;48.60;;;;;;5007641;28;20034;-64
2022/03/07 07:59:47;;;;;;;11.65;6.70;;;2.70;48.50;;;;;;5006909;28;20057;-64
2022/03/07 08:02:13;;;;;;;12.50;6.07;;;2.80;48.50;;;;;;5007477;28;20030;-63
2022/03/07 08:04:39;;;;;;;8.52;5.75;;;2.80;48.20;;;;;;5006423;28;20093;-63
2022/03/07 08:07:05;;;;;;;11.20;6.82;;;2.90;48.10;;;;;;5008213;28;20026;-63
2022/03/07 08:09:30;;;;;;;12.85;6.63;;;2.90;48.10;;;;;;5006467;28;20033;-64
2022/03/07 08:11:56;;;;;;;9.82;6.00;;;3.00;48.10;;;;;;5007436;28;20023;-63
2022/03/07 08:14:23;;;;;;;9.68;6.30;;;3.10;47.90;;;;;;5027047;28;20049;-64
2022/03/07 08:16:49;;;;;;;13.48;5.88;;;3.10;47.90;;;;;;5045586;28;20025;-64
2022/03/07 08:19:15;;;;;;;12.15;6.07;;;3.20;47.80;;;;;;5047230;28;20028;-64
2022/03/07 08:21:41;;;;;;;8.02;5.75;;;3.20;47.60;;;;;;5045710;28;20068;-64
2022/03/07 08:24:06;;;;;;;13.18;5.82;;;3.30;47.50;;;;;;5028350;28;20087;-62
2022/03/07 08:26:32;;;;;;;11.00;5.90;;;3.20;47.30;;;;;;5046085;28;20173;-63
2022/03/07 08:28:58;;;;;;;17.35;6.72;;;3.30;47.40;;;;;;5028800;28;20034;-64
2022/03/07 08:31:23;;;;;;;13.73;6.35;;;3.30;47.30;;;;;;5045418;28;20113;-63
2022/03/07 08:33:49;;;;;;;10.35;6.28;;;3.30;47.30;;;;;;5046111;28;20041;-63
2022/03/07 08:36:15;;;;;;;9.77;6.18;;;3.30;47.20;;;;;;5027586;28;20419;-63
2022/03/07 08:38:41;;;;;;;10.18;6.63;;;3.30;47.30;;;;;;5028857;28;20037;-63
2022/03/07 08:41:07;;;;;;;11.05;6.82;;;3.30;47.40;;;;;;5027718;28;20037;-64
2022/03/07 08:43:33;;;;;;;12.07;6.30;;;3.40;47.60;;;;;;5046158;28;20120;-63
2022/03/07 08:45:59;;;;;;;9.20;6.65;;;3.40;47.70;;;;;;5044697;28;20033;-63
2022/03/07 08:48:25;;;;;;;12.00;6.30;;;3.50;47.50;;;;;;5046756;28;20017;-63
2022/03/07 08:50:53;;;;;;;9.10;6.40;;;3.70;47.60;;;;;;5045070;28;20101;-63
2022/03/07 08:53:19;;;;;;;10.55;6.50;;;3.80;47.50;;;;;;5046045;28;20033;-64
2022/03/07 08:55:44;;;;;;;14.15;9.00;;;3.80;47.40;;;;;;5045516;28;20076;-63
2022/03/07 08:58:10;;;;;;;20.95;11.90;;;4.00;47.40;;;;;;5028481;28;20041;-62
2022/03/07 09:00:36;;;;;;;23.42;9.43;;;3.90;47.30;;;;;;5044912;28;20048;-62
2022/03/07 09:03:04;;;;;;;12.52;7.63;;;4.00;47.30;;;;;;5046486;28;20033;-62
2022/03/07 09:05:30;;;;;;;13.50;7.70;;;4.10;47.30;;;;;;5045043;28;20017;-62
2022/03/07 09:07:55;;;;;;;11.75;7.30;;;4.40;47.50;;;;;;5045822;28;20099;-64
2022/03/07 09:10:21;;;;;;;10.43;7.45;;;4.30;47.20;;;;;;5039844;28;20046;-62
2022/03/07 09:12:48;;;;;;;9.45;6.82;;;4.60;47.10;;;;;;5044920;28;21909;-62
2022/03/07 09:15:14;;;;;;;9.70;6.90;;;4.40;46.80;;;;;;5044929;28;20085;-62
2022/03/07 09:17:41;;;;;;;10.88;7.13;;;4.50;46.90;;;;;;5046277;28;20028;-62
2022/03/07 09:20:08;;;;;;;11.65;7.43;;;4.80;47.00;;;;;;5044559;28;20029;-65
2022/03/07 09:22:35;;;;;;;10.15;7.15;;;4.60;46.80;;;;;;5045842;28;20052;-63
2022/03/07 09:25:03;;;;;;;13.07;7.15;;;4.70;46.60;;;;;;5044279;28;20049;-63
2022/03/07 09:27:28;;;;;;;12.40;7.88;;;4.90;46.60;;;;;;5045659;28;20510;-63
2022/03/07 09:29:54;;;;;;;10.55;7.10;;;4.90;46.40;;;;;;5044312;28;20025;-63
2022/03/07 09:32:20;;;;;;;11.30;7.20;;;4.90;46.30;;;;;;5045846;28;20100;-63
2022/03/07 09:34:46;;;;;;;10.50;7.35;;;4.90;46.20;;;;;;5044067;28;20091;-63
2022/03/07 09:37:12;;;;;;;11.60;7.13;;;5.00;46.00;;;;;;5045536;28;20014;-62
2022/03/07 09:39:37;;;;;;;10.55;7.05;;;5.20;46.10;;;;;;5044078;28;20068;-63
2022/03/07 09:42:04;;;;;;;11.25;7.43;;;5.20;46.00;;;;;;5045652;28;20049;-63
2022/03/07 09:44:29;;;;;;;11.15;7.22;;;5.20;45.50;;;;;;5043980;28;20029;-64
2022/03/07 09:46:57;;;;;;;12.45;6.70;;;5.30;45.40;;;;;;5045022;28;20560;-65
2022/03/07 09:49:23;;;;;;;9.93;6.55;;;5.60;45.60;;;;;;5038309;28;20060;-63
2022/03/07 09:51:49;;;;;;;10.38;7.00;;;5.40;45.50;;;;;;5044043;28;20097;-64
2022/03/07 09:54:15;;;;;;;10.48;6.50;;;5.40;45.20;;;;;;5044686;28;20088;-63
2022/03/07 09:56:41;;;;;;;11.95;8.10;;;5.40;45.00;;;;;;5026470;28;20033;-64
2022/03/07 09:59:07;;;;;;;12.30;6.90;;;5.40;45.10;;;;;;5045162;28;20094;-62
2022/03/07 10:01:33;;;;;;;10.30;6.53;;;5.50;45.30;;;;;;5042214;28;20139;-63
2022/03/07 10:04:08;;;;;;;12.07;6.72;;;5.60;45.40;;;;;;5045040;28;20029;-63
2022/03/07 10:06:34;;;;;;;9.00;6.22;;;5.70;45.10;;;;;;5044226;28;20048;-63
2022/03/07 10:09:01;;;;;;;12.32;6.68;;;5.80;45.20;;;;;;5043523;28;20072;-63
2022/03/07 10:11:28;;;;;;;14.10;6.85;;;5.90;45.20;;;;;;5025517;28;20120;-64
2022/03/07 10:14:00;;;;;;;10.27;6.88;;;6.10;45.00;;;;;;5044093;28;20049;-62
2022/03/07 10:16:43;;;;;;;9.38;6.75;;;6.20;44.50;;;;;;5025933;28;20041;-63
2022/03/07 10:19:13;;;;;;;8.25;5.00;;;6.40;43.80;;;;;;5044504;28;20053;-62
2022/03/07 10:21:52;;;;;;;9.45;6.13;;;6.50;43.80;;;;;;5043555;28;20483;-63
2022/03/07 10:24:19;;;;;;;9.55;6.70;;;6.60;43.50;;;;;;5044859;28;20034;-64
2022/03/07 10:26:45;;;;;;;10.13;6.60;;;6.60;42.90;;;;;;5043878;28;20372;-64
2022/03/07 10:29:10;;;;;;;8.70;6.18;;;6.60;42.70;;;;;;5044522;28;20025;-64
2022/03/07 10:31:44;;;;;;;9.18;6.35;;;6.70;42.70;;;;;;5043659;28;20096;-64
2022/03/07 10:34:11;;;;;;;8.93;6.60;;;6.70;42.70;;;;;;5033758;28;20040;-63
2022/03/07 10:36:41;;;;;;;10.98;7.00;;;6.60;42.60;;;;;;5042350;28;20034;-64
2022/03/07 10:39:12;;;;;;;12.80;6.93;;;6.60;42.40;;;;;;5044458;28;20068;-62
2022/03/07 10:41:45;;;;;;;10.88;6.80;;;6.60;42.60;;;;;;5041497;28;20043;-63
2022/03/07 10:44:29;;;;;;;9.87;6.70;;;6.50;42.30;;;;;;5044892;28;20025;-62
2022/03/07 10:47:09;;;;;;;8.57;6.38;;;6.50;43.20;;;;;;5043777;28;20033;-62
2022/03/07 10:49:45;;;;;;;10.55;6.93;;;6.40;42.30;;;;;;5041565;28;20029;-62
2022/03/07 10:52:10;;;;;;;11.50;6.55;;;6.40;42.50;;;;;;5013295;28;20034;-63
2022/03/07 10:54:37;;;;;;;13.63;7.15;;;6.40;42.80;;;;;;5043008;28;20044;-65
2022/03/07 10:57:03;;;;;;;10.98;7.10;;;6.50;42.90;;;;;;5044643;28;20112;-64
2022/03/07 10:59:34;;;;;;;11.80;6.75;;;6.50;41.90;;;;;;5047916;28;20033;-65
2022/03/07 11:02:10;;;;;;;12.48;8.63;;;6.60;42.10;;;;;;5050160;28;20022;-64
2022/03/07 11:04:50;;;;;;;14.75;7.40;;;6.60;42.10;;;;;;5016993;28;20045;-66
2022/03/07 11:07:16;;;;;;;10.70;7.38;;;6.70;41.10;;;;;;5047450;28;20076;-63
2022/03/07 11:09:43;;;;;;;9.93;7.13;;;6.70;41.80;;;;;;5048532;28;20076;-64
2022/03/07 11:12:14;;;;;;;9.90;7.10;;;6.80;42.00;;;;;;5034888;28;20014;-65
2022/03/07 11:14:41;;;;;;;11.52;7.75;;;6.80;42.20;;;;;;5029691;28;20045;-64
2022/03/07 11:17:14;;;;;;;11.02;7.57;;;7.00;42.20;;;;;;5048591;28;20033;-64
2022/03/07 11:19:42;;;;;;;12.85;7.65;;;7.30;41.60;;;;;;5029430;28;20030;-63
2022/03/07 11:22:09;;;;;;;12.02;7.88;;;7.50;42.00;;;;;;5048718;28;20085;-65
2022/03/07 11:24:37;;;;;;;9.23;6.65;;;7.70;41.40;;;;;;5047564;28;20045;-62
2022/03/07 11:27:03;;;;;;;9.18;7.25;;;7.80;41.90;;;;;;5047777;28;20029;-63
2022/03/07 11:29:40;;;;;;;9.95;6.93;;;7.90;40.80;;;;;;5046908;28;20578;-65
2022/03/07 11:32:11;;;;;;;9.30;6.85;;;7.90;40.60;;;;;;5048084;28;20029;-64
2022/03/07 11:34:38;;;;;;;9.18;7.00;;;8.10;40.90;;;;;;5046814;28;20037;-65
2022/03/07 11:37:16;;;;;;;9.80;6.90;;;8.20;41.00;;;;;;5048056;28;20044;-63
2022/03/07 11:39:42;;;;;;;9.43;6.97;;;8.40;40.10;;;;;;5038035;28;20080;-64
2022/03/07 11:42:17;;;;;;;10.45;7.30;;;8.50;40.60;;;;;;5047981;28;20029;-62
2022/03/07 11:44:44;;;;;;;8.75;7.10;;;8.60;39.90;;;;;;5028702;28;20021;-63
2022/03/07 11:47:13;;;;;;;10.27;7.28;;;8.70;40.00;;;;;;5047328;28;20036;-64
2022/03/07 11:49:39;;;;;;;10.73;7.45;;;8.80;39.90;;;;;;5045432;28;20040;-64
2022/03/07 11:52:13;;;;;;;9.68;7.43;;;8.90;39.70;;;;;;5046852;28;20089;-64
2022/03/07 11:54:57;;;;;;;10.35;7.63;;;9.00;39.30;;;;;;5043260;28;20045;-64
2022/03/07 11:57:39;;;;;;;9.07;6.00;;;9.10;38.20;;;;;;5035946;28;20052;-64
2022/03/07 12:00:21;;;;;;;9.68;7.65;;;9.20;38.90;;;;;;5045724;28;20089;-64
2022/03/07 12:02:50;;;;;;;10.82;7.47;;;9.30;38.70;;;;;;5047414;28;20029;-62
2022/03/07 12:05:27;;;;;;;15.63;8.10;;;9.30;39.00;;;;;;5046211;28;20045;-63
2022/03/07 12:08:13;;;;;;;10.65;7.95;;;9.30;38.70;;;;;;5047525;28;20036;-63
2022/03/07 12:10:57;;;;;;;9.70;7.65;;;9.30;38.10;;;;;;5039602;28;20035;-64
2022/03/07 12:13:23;;;;;;;9.80;7.40;;;9.40;38.00;;;;;;5040677;28;20056;-63
2022/03/07 12:15:59;;;;;;;9.57;7.63;;;9.20;38.20;;;;;;5045990;28;20101;-63
2022/03/07 12:18:28;;;;;;;11.52;7.55;;;9.10;37.50;;;;;;5044547;28;20507;-63
2022/03/07 12:20:58;;;;;;;10.77;7.95;;;9.00;37.90;;;;;;5046025;28;20081;-63
2022/03/07 12:23:29;;;;;;;13.18;7.80;;;8.90;38.20;;;;;;5046566;28;20033;-62
2022/03/07 12:26:01;;;;;;;13.63;7.78;;;8.80;38.30;;;;;;5038392;28;20480;-63
2022/03/07 12:28:28;;;;;;;11.35;8.07;;;8.70;38.50;;;;;;5037285;28;20045;-64
2022/03/07 12:30:55;;;;;;;14.18;8.25;;;8.80;39.00;;;;;;5037086;28;20057;-64
2022/03/07 12:33:21;;;;;;;12.80;8.50;;;8.80;39.00;;;;;;5045993;28;20026;-63
2022/03/07 12:35:47;;;;;;;10.77;8.15;;;8.90;38.90;;;;;;5027742;28;20040;-64
2022/03/07 12:38:12;;;;;;;15.32;9.27;;;8.90;38.70;;;;;;5045409;28;20108;-64
2022/03/07 12:40:38;;;;;;;13.80;9.27;;;8.90;38.40;;;;;;5045541;28;20037;-64
2022/03/07 12:43:05;;;;;;;13.18;8.73;;;8.90;38.30;;;;;;5046635;28;20045;-64
2022/03/07 12:45:33;;;;;;;14.27;8.20;;;8.90;38.40;;;;;;5025152;28;20117;-61
2022/03/07 12:48:01;;;;;;;13.75;9.35;;;8.90;38.50;;;;;;5027415;28;20025;-62
2022/03/07 12:50:30;;;;;;;13.65;8.57;;;9.00;38.10;;;;;;5041539;28;20030;-62